OICI  Ilam Airport

Add Bookmark

Ilam, Iran

Status IATA
Operational IIL
Latitude Longitude
33° 35' 11" N 46° 24' 17" E
33.586601 46.404800
Local (DST + 5) UTC (GMT + 4)
Feb 1, 2015 03:57 Feb 1, 2015 00:27
Sunrise-Sunset Local UTC
Begin Civil Twilight 06:53 03:23
Sunrise 07:19 03:49
Sunset 05:56 14:26
End Civil Twilight 06:22 14:52

Current Weather

METAR Observed VFR
OICI 312300Z 08006KT CAVOK 02/M01 Q1022 A3019 Sat, Jan 31, 2015 @ 23:00 UTC
(1 Hour, 27 Minutes ago)
Visual Flight Rules
Wind Visibility Clouds Conditions
080° at 6 knots (11 kph) 10 km or more
  • Clear skies
  • No significant weather
Temperatures Readings Precipitation
Current Temp 2°C (36°F)
Dewpoint -1°C (30°F)
Humidity 81%
Altimeter 30.18"Hg
Sea Level Pressure 1022mb
Field Elevation 4406.17'
None Recorded

Additional weather within a 185.2km radius of OICI

Map ICAO Location
OICC 109.3km N (039°)
OICK 174.8km E (095°)

24 Hour Weather History

Loading
-

24 Hour Weather Graphs

Loading
-

CheckWX.com is intended as a tool to help pilots better visualize weather data. It is not intended as a substitute for an official weather briefing obtained from a Flight Service Station. CheckWX.com does not meet the FAA requirements for an official pre-flight weather briefing. Therefore, it's important that pilots still call and obtain an official FSS pre-flight weather briefing.